Time;durP1;ratioP1;P1;durP2;ratioP2;P2;SDS_P1;SDS_P2;PMS_P1;PMS_P2;Temp;Humidity;BMP_temperature;BMP_pressure;BME280_temperature;BME280_humidity;BME280_pressure;Samples;Min_cycle;Max_cycle;Signal;HPM_P1;HPM_P2
2020/12/10 00:01:45;;;;;;;46.93;22.53;;;1.40;99.90;;;;;;5049686;28;20170;-62
2020/12/10 00:04:10;;;;;;;49.80;22.83;;;1.40;99.90;;;;;;5049170;28;20730;-63
2020/12/10 00:06:36;;;;;;;29.20;14.70;;;1.40;99.90;;;;;;5050233;28;20192;-63
2020/12/10 00:09:01;;;;;;;34.40;15.83;;;1.40;99.90;;;;;;5048896;28;20195;-63
2020/12/10 00:11:27;;;;;;;62.47;28.20;;;1.40;99.90;;;;;;5050390;28;20178;-62
2020/12/10 00:13:52;;;;;;;41.40;19.80;;;1.40;99.90;;;;;;5050844;28;20170;-63
2020/12/10 00:16:18;;;;;;;37.50;17.70;;;1.40;99.90;;;;;;5049761;28;20614;-62
2020/12/10 00:18:43;;;;;;;54.03;24.17;;;1.40;99.90;;;;;;5050730;28;20182;-63
2020/12/10 00:21:09;;;;;;;40.20;20.17;;;1.40;99.90;;;;;;5049618;28;20206;-62
2020/12/10 00:23:34;;;;;;;33.17;15.30;;;1.40;99.90;;;;;;5049721;28;20681;-62
2020/12/10 00:26:01;;;;;;;35.43;19.30;;;1.40;99.90;;;;;;5050774;28;20287;-63
2020/12/10 00:28:27;;;;;;;41.17;19.47;;;1.40;99.90;;;;;;5048405;28;20186;-62
2020/12/10 00:30:52;;;;;;;32.23;13.77;;;1.40;99.90;;;;;;5048330;28;20209;-63
2020/12/10 00:33:18;;;;;;;41.10;21.07;;;1.30;99.90;;;;;;5049465;28;20181;-62
2020/12/10 00:35:43;;;;;;;18.57;9.57;;;1.30;99.90;;;;;;5050379;28;20724;-62
2020/12/10 00:38:09;;;;;;;30.53;16.63;;;1.30;99.90;;;;;;5049531;28;20233;-63
2020/12/10 00:40:34;;;;;;;22.67;10.33;;;1.30;99.90;;;;;;5049079;28;20213;-63
2020/12/10 00:43:00;;;;;;;48.80;24.77;;;1.20;99.90;;;;;;5049440;28;20327;-62
2020/12/10 00:45:25;;;;;;;46.07;21.60;;;1.20;99.90;;;;;;5047732;28;20235;-62
2020/12/10 00:47:51;;;;;;;34.67;17.07;;;1.30;99.90;;;;;;5050639;28;20185;-62
2020/12/10 00:50:16;;;;;;;27.87;14.43;;;1.30;99.90;;;;;;5048641;28;20236;-61
2020/12/10 00:52:42;;;;;;;37.53;20.30;;;1.30;99.90;;;;;;5050249;28;20192;-62
2020/12/10 00:55:07;;;;;;;34.13;18.03;;;1.30;99.90;;;;;;5037976;28;20181;-62
2020/12/10 00:57:33;;;;;;;35.37;16.57;;;1.20;99.90;;;;;;5047422;28;20252;-62
2020/12/10 00:59:59;;;;;;;48.13;25.03;;;1.20;99.90;;;;;;5050371;28;20197;-72
2020/12/10 01:02:25;;;;;;;32.60;14.60;;;1.20;99.90;;;;;;5050893;28;20524;-65
2020/12/10 01:04:51;;;;;;;34.53;14.83;;;1.10;99.90;;;;;;5049626;28;20387;-62
2020/12/10 01:07:17;;;;;;;41.17;16.83;;;1.10;99.90;;;;;;5050094;28;20301;-62
2020/12/10 01:09:43;;;;;;;29.20;15.30;;;1.20;99.90;;;;;;5050405;28;20228;-62
2020/12/10 01:12:08;;;;;;;29.20;15.27;;;1.10;99.90;;;;;;5050320;28;20548;-62
2020/12/10 01:14:33;;;;;;;59.47;27.67;;;1.20;99.90;;;;;;5049546;28;20196;-62
2020/12/10 01:17:00;;;;;;;41.27;20.20;;;1.20;99.90;;;;;;5048824;28;20208;-62
2020/12/10 01:19:26;;;;;;;40.70;19.67;;;1.20;99.90;;;;;;5049646;28;20240;-62
2020/12/10 01:21:51;;;;;;;51.53;24.67;;;1.30;99.90;;;;;;5050115;28;20170;-62
2020/12/10 01:24:16;;;;;;;39.37;19.33;;;1.30;99.90;;;;;;5049109;28;20231;-62
2020/12/10 01:26:45;;;;;;;31.37;15.53;;;1.30;99.90;;;;;;5049486;28;20192;-62
2020/12/10 01:29:10;;;;;;;31.37;14.90;;;1.20;99.90;;;;;;5050139;28;20182;-62
2020/12/10 01:31:36;;;;;;;51.40;25.53;;;1.20;99.90;;;;;;5049553;28;20223;-62
2020/12/10 01:34:01;;;;;;;32.57;15.47;;;1.20;99.90;;;;;;5049777;28;20661;-62
2020/12/10 01:36:28;;;;;;;26.57;13.67;;;1.20;99.90;;;;;;5049656;28;20193;-62
2020/12/10 01:38:54;;;;;;;53.93;24.13;;;1.20;99.90;;;;;;5049691;28;20166;-63
2020/12/10 01:41:20;;;;;;;49.77;23.93;;;1.30;99.90;;;;;;5048161;28;20181;-62
2020/12/10 01:43:46;;;;;;;60.70;28.97;;;1.30;99.90;;;;;;5049857;28;20591;-63
2020/12/10 01:46:12;;;;;;;57.00;26.57;;;1.40;99.90;;;;;;5049405;28;20252;-63
2020/12/10 01:48:38;;;;;;;43.07;17.47;;;1.30;99.90;;;;;;5049520;28;20173;-63
2020/12/10 01:51:04;;;;;;;63.53;28.43;;;1.30;99.90;;;;;;5048558;28;20196;-63
2020/12/10 01:53:30;;;;;;;27.43;16.27;;;1.20;99.90;;;;;;5047302;28;20181;-63
2020/12/10 01:55:56;;;;;;;47.53;21.50;;;1.20;99.90;;;;;;5049366;28;20212;-63
2020/12/10 01:58:21;;;;;;;29.03;14.50;;;1.10;99.90;;;;;;5048922;28;20209;-63
2020/12/10 02:00:47;;;;;;;35.33;16.67;;;1.10;99.90;;;;;;5049334;28;20182;-63
2020/12/10 02:03:12;;;;;;;44.77;25.33;;;1.20;99.90;;;;;;5048265;28;20165;-63
2020/12/10 02:05:43;;;;;;;32.50;17.60;;;1.20;99.90;;;;;;5049313;28;20775;-63
2020/12/10 02:08:09;;;;;;;34.57;15.83;;;1.20;99.90;;;;;;5048634;28;20169;-63
2020/12/10 02:10:35;;;;;;;47.30;20.60;;;1.20;99.90;;;;;;5048779;28;20201;-63
2020/12/10 02:13:01;;;;;;;52.83;26.63;;;1.10;99.90;;;;;;5049765;28;20181;-63
2020/12/10 02:15:26;;;;;;;49.87;22.80;;;1.20;99.90;;;;;;5049737;28;20185;-63
2020/12/10 02:17:54;;;;;;;53.93;24.67;;;1.20;99.90;;;;;;5065586;28;20233;-60
2020/12/10 02:20:20;;;;;;;24.57;12.27;;;1.10;99.90;;;;;;5055558;28;20273;-63
2020/12/10 02:22:57;;;;;;;39.90;17.83;;;1.10;99.90;;;;;;5049963;28;20188;-62
2020/12/10 02:25:22;;;;;;;62.60;27.37;;;1.10;99.90;;;;;;5048386;28;20578;-61
2020/12/10 02:27:48;;;;;;;48.13;17.20;;;1.10;99.90;;;;;;5048984;28;20220;-62
2020/12/10 02:30:13;;;;;;;46.00;21.70;;;1.10;99.90;;;;;;5047839;28;20205;-61
2020/12/10 02:32:39;;;;;;;47.47;22.37;;;1.10;99.90;;;;;;5048647;28;20178;-62
2020/12/10 02:35:04;;;;;;;46.43;21.13;;;1.10;99.90;;;;;;5048698;28;20626;-61
2020/12/10 02:37:29;;;;;;;47.30;22.30;;;1.10;99.90;;;;;;5049141;28;20216;-61
2020/12/10 02:39:55;;;;;;;62.90;26.97;;;1.20;99.90;;;;;;5047198;28;20255;-61
2020/12/10 02:42:22;;;;;;;38.90;18.27;;;1.20;99.90;;;;;;5048348;28;20501;-62
2020/12/10 02:44:48;;;;;;;50.93;22.87;;;1.20;99.90;;;;;;5048146;28;20173;-62
2020/12/10 02:47:13;;;;;;;45.87;21.23;;;1.10;99.90;;;;;;5047528;28;20181;-63
2020/12/10 02:49:39;;;;;;;63.73;28.47;;;1.10;99.90;;;;;;5048063;28;20197;-63
2020/12/10 02:52:04;;;;;;;58.23;24.43;;;1.10;99.90;;;;;;5047439;28;20173;-62
2020/12/10 02:54:30;;;;;;;42.00;16.77;;;1.10;99.90;;;;;;5047639;28;21081;-61
2020/12/10 02:56:58;;;;;;;60.83;26.63;;;1.00;99.90;;;;;;5048449;28;20581;-61
2020/12/10 02:59:23;;;;;;;51.97;22.27;;;0.90;99.90;;;;;;5046690;28;20228;-61
2020/12/10 03:01:52;;;;;;;45.50;19.27;;;0.90;99.90;;;;;;5047707;28;20646;-61
2020/12/10 03:04:17;;;;;;;52.17;23.17;;;0.90;99.90;;;;;;5048140;28;20212;-61
2020/12/10 03:06:43;;;;;;;64.70;25.63;;;0.90;99.90;;;;;;5048205;28;20570;-61
2020/12/10 03:09:08;;;;;;;52.53;20.77;;;0.90;99.90;;;;;;5047048;28;20182;-61
2020/12/10 03:11:34;;;;;;;67.40;27.83;;;1.00;99.90;;;;;;5086095;22;20649;-65
2020/12/10 03:13:59;;;;;;;71.83;29.00;;;1.00;99.90;;;;;;5067389;28;20173;-65
2020/12/10 03:16:25;;;;;;;74.37;30.07;;;1.00;99.90;;;;;;5070288;28;20169;-65
2020/12/10 03:18:51;;;;;;;63.47;25.20;;;1.00;99.90;;;;;;5071026;28;20206;-65
2020/12/10 03:21:17;;;;;;;79.90;29.70;;;1.10;99.90;;;;;;5068171;28;20188;-66
2020/12/10 03:23:42;;;;;;;82.33;30.10;;;1.10;99.90;;;;;;5068209;28;20165;-65
2020/12/10 03:26:07;;;;;;;83.13;30.17;;;1.00;99.90;;;;;;5068200;28;20204;-66
2020/12/10 03:28:33;;;;;;;79.20;25.07;;;0.90;99.90;;;;;;5059047;28;20268;-66
2020/12/10 03:31:01;;;;;;;74.83;27.13;;;0.90;99.90;;;;;;5067183;28;20234;-65
2020/12/10 03:33:26;;;;;;;98.40;33.17;;;0.90;99.90;;;;;;5069557;28;20180;-66
2020/12/10 03:35:52;;;;;;;111.57;37.37;;;1.00;99.90;;;;;;5071474;28;20165;-67
2020/12/10 03:38:18;;;;;;;56.63;20.90;;;1.00;99.90;;;;;;5069508;28;20279;-67
2020/12/10 03:40:43;;;;;;;55.60;19.27;;;1.00;99.90;;;;;;5073064;28;20266;-66
2020/12/10 03:43:09;;;;;;;65.30;22.80;;;1.00;99.90;;;;;;5068334;28;20208;-67
2020/12/10 03:45:35;;;;;;;42.57;16.50;;;0.90;99.90;;;;;;5069541;28;20220;-66
2020/12/10 03:48:00;;;;;;;68.70;28.70;;;0.90;99.90;;;;;;5068077;28;20259;-66
2020/12/10 03:50:26;;;;;;;40.83;20.70;;;0.90;99.90;;;;;;5066760;28;20280;-67
2020/12/10 03:52:51;;;;;;;43.53;20.43;;;0.90;99.90;;;;;;5066998;28;20192;-67
2020/12/10 03:55:17;;;;;;;39.93;18.53;;;0.80;99.90;;;;;;5068040;28;20216;-66
2020/12/10 03:57:42;;;;;;;52.97;21.77;;;0.90;99.90;;;;;;5066250;28;20217;-66
2020/12/10 04:00:08;;;;;;;79.00;29.63;;;0.90;99.90;;;;;;5064735;28;20204;-66
2020/12/10 04:02:33;;;;;;;81.97;32.27;;;0.90;99.90;;;;;;5066898;28;20236;-66
2020/12/10 04:04:59;;;;;;;45.13;17.37;;;0.90;99.90;;;;;;5069163;28;20227;-65
2020/12/10 04:07:25;;;;;;;81.63;31.20;;;0.90;99.90;;;;;;5071150;28;20177;-64
2020/12/10 04:09:50;;;;;;;65.47;24.37;;;0.90;99.90;;;;;;5069614;28;20334;-66
2020/12/10 04:12:16;;;;;;;59.53;24.40;;;1.00;99.90;;;;;;5071649;28;20375;-66
2020/12/10 04:14:41;;;;;;;54.07;21.37;;;1.00;99.90;;;;;;5071197;28;20341;-66
2020/12/10 04:17:06;;;;;;;76.30;31.10;;;1.10;99.90;;;;;;5070987;28;20193;-65
2020/12/10 04:19:32;;;;;;;81.00;29.33;;;1.10;99.90;;;;;;5068548;28;20700;-65
2020/12/10 04:21:57;;;;;;;75.83;29.93;;;1.10;99.90;;;;;;5069087;28;20181;-65
2020/12/10 04:24:23;;;;;;;45.80;20.13;;;1.10;99.90;;;;;;5070226;28;20173;-66
2020/12/10 04:26:48;;;;;;;73.80;30.93;;;1.10;99.90;;;;;;5070975;28;20215;-66
2020/12/10 04:29:14;;;;;;;71.00;31.53;;;1.10;99.90;;;;;;5071255;28;20181;-66
2020/12/10 04:31:43;;;;;;;44.03;19.17;;;1.10;99.90;;;;;;5060898;28;20197;-66
2020/12/10 04:34:09;;;;;;;39.73;17.20;;;1.20;99.90;;;;;;5073158;28;20260;-66
2020/12/10 04:36:34;;;;;;;61.53;26.90;;;1.20;99.90;;;;;;5071729;28;20673;-66
2020/12/10 04:39:00;;;;;;;57.67;25.90;;;1.20;99.90;;;;;;5069614;28;20635;-66
2020/12/10 04:41:29;;;;;;;27.10;13.07;;;1.30;99.90;;;;;;5070380;28;20661;-66
2020/12/10 04:43:54;;;;;;;57.83;20.77;;;1.20;99.90;;;;;;5070791;28;20169;-66
2020/12/10 04:46:24;;;;;;;66.57;27.83;;;1.20;99.90;;;;;;5071061;28;20180;-66
2020/12/10 04:48:50;;;;;;;62.13;26.13;;;1.10;99.90;;;;;;5069063;28;20272;-66
2020/12/10 04:51:15;;;;;;;47.20;21.90;;;1.20;99.90;;;;;;5070751;28;20556;-66
2020/12/10 04:53:41;;;;;;;61.23;23.63;;;1.20;99.90;;;;;;5070424;28;20173;-67
2020/12/10 04:56:07;;;;;;;50.27;21.03;;;1.20;99.90;;;;;;5070849;28;20179;-66
2020/12/10 04:58:33;;;;;;;65.37;28.27;;;1.20;99.90;;;;;;5066467;28;20211;-66
2020/12/10 05:01:01;;;;;;;61.90;28.53;;;1.20;99.90;;;;;;5066673;28;20205;-66
2020/12/10 05:03:27;;;;;;;66.07;29.30;;;1.20;99.90;;;;;;5071237;28;20240;-65
2020/12/10 05:05:52;;;;;;;52.87;24.77;;;1.10;99.90;;;;;;5068921;28;20169;-65
2020/12/10 05:08:31;;;;;;;36.60;16.17;;;1.10;99.90;;;;;;5070701;28;20230;-66
2020/12/10 05:10:57;;;;;;;47.43;19.17;;;1.20;99.90;;;;;;5068818;28;20259;-65
2020/12/10 05:13:23;;;;;;;65.90;24.67;;;1.20;99.90;;;;;;5070567;28;20187;-66
2020/12/10 05:15:49;;;;;;;64.13;26.20;;;1.20;99.90;;;;;;5070365;28;20582;-66
2020/12/10 05:18:15;;;;;;;64.93;21.40;;;1.20;99.90;;;;;;5070494;28;20196;-66
2020/12/10 05:20:46;;;;;;;46.30;22.37;;;1.10;99.90;;;;;;5068781;28;20246;-66
2020/12/10 05:23:17;;;;;;;52.73;20.00;;;1.10;99.90;;;;;;5070149;28;20173;-66
2020/12/10 05:25:52;;;;;;;61.40;26.17;;;1.10;99.90;;;;;;5070417;28;20207;-66
2020/12/10 05:28:19;;;;;;;59.47;25.70;;;1.20;99.90;;;;;;5069717;28;20168;-66
2020/12/10 05:30:46;;;;;;;45.47;19.50;;;1.20;99.90;;;;;;5067718;28;20208;-66
2020/12/10 05:33:13;;;;;;;43.83;19.50;;;1.20;99.90;;;;;;5067762;28;20241;-65
2020/12/10 05:35:40;;;;;;;54.10;22.67;;;1.20;99.90;;;;;;5068214;28;20253;-65
2020/12/10 05:38:12;;;;;;;59.40;25.70;;;1.20;99.90;;;;;;5069782;28;20219;-66
2020/12/10 05:40:39;;;;;;;44.97;19.70;;;1.20;99.90;;;;;;5067794;28;20205;-65
2020/12/10 05:43:06;;;;;;;63.83;26.67;;;1.20;99.90;;;;;;5067412;28;20169;-65
2020/12/10 05:45:38;;;;;;;64.23;28.03;;;1.20;99.90;;;;;;5076658;28;20604;-65
2020/12/10 05:48:04;;;;;;;61.13;26.80;;;1.20;99.90;;;;;;5069660;28;20165;-65
2020/12/10 05:50:31;;;;;;;61.90;26.43;;;1.20;99.90;;;;;;5067343;28;20231;-64
2020/12/10 05:53:13;;;;;;;64.80;26.97;;;1.20;99.90;;;;;;5069166;28;20165;-63
2020/12/10 05:55:40;;;;;;;66.67;27.43;;;1.20;99.90;;;;;;5069032;28;20461;-64
2020/12/10 05:58:06;;;;;;;69.30;30.23;;;1.20;99.90;;;;;;5069756;28;20188;-66
2020/12/10 06:00:33;;;;;;;57.50;24.63;;;1.30;99.90;;;;;;5068290;28;20193;-65
2020/12/10 06:03:00;;;;;;;73.73;31.13;;;1.30;99.90;;;;;;5057660;28;20357;-64
2020/12/10 06:05:26;;;;;;;42.27;18.23;;;1.30;99.90;;;;;;5069484;28;20167;-64
2020/12/10 06:08:08;;;;;;;63.93;24.33;;;1.30;99.90;;;;;;5069392;28;20223;-65
2020/12/10 06:10:42;;;;;;;37.87;17.40;;;1.30;99.90;;;;;;5066703;28;20208;-64
2020/12/10 06:13:09;;;;;;;64.67;25.23;;;1.20;99.90;;;;;;5068436;28;20169;-64
2020/12/10 06:15:35;;;;;;;71.37;29.10;;;1.20;99.90;;;;;;5059383;28;20172;-64
2020/12/10 06:18:05;;;;;;;62.80;28.57;;;1.20;99.90;;;;;;5066895;28;20759;-64
2020/12/10 06:20:36;;;;;;;62.60;25.10;;;1.20;99.90;;;;;;5067171;28;20636;-63
2020/12/10 06:23:23;;;;;;;69.83;30.57;;;1.30;99.90;;;;;;5068482;28;20197;-64
2020/12/10 06:25:49;;;;;;;69.23;28.00;;;1.30;99.90;;;;;;5069200;28;20548;-64
2020/12/10 06:28:17;;;;;;;60.30;23.30;;;1.30;99.90;;;;;;5067213;28;20181;-65
2020/12/10 06:30:42;;;;;;;54.67;22.27;;;1.30;99.90;;;;;;5065674;28;20201;-65
2020/12/10 06:33:08;;;;;;;47.73;20.33;;;1.30;99.90;;;;;;5069423;28;20684;-65
2020/12/10 06:35:35;;;;;;;75.57;30.33;;;1.30;99.90;;;;;;5068881;28;20180;-66
2020/12/10 06:38:07;;;;;;;43.87;20.67;;;1.30;99.90;;;;;;5068813;28;20218;-66
2020/12/10 06:40:39;;;;;;;51.93;20.60;;;1.30;99.90;;;;;;5067037;28;20607;-66
2020/12/10 06:43:07;;;;;;;43.67;20.10;;;1.30;99.90;;;;;;5069272;28;20188;-66
2020/12/10 06:45:35;;;;;;;40.43;19.03;;;1.30;99.90;;;;;;5067336;28;20165;-66
2020/12/10 06:48:05;;;;;;;61.50;27.00;;;1.30;99.90;;;;;;5068570;28;20322;-65
2020/12/10 06:50:39;;;;;;;58.73;25.53;;;1.40;99.90;;;;;;5066561;28;20241;-65
2020/12/10 06:53:08;;;;;;;64.67;23.67;;;1.30;99.90;;;;;;5068980;28;20703;-66
2020/12/10 06:55:33;;;;;;;38.80;20.20;;;1.40;99.90;;;;;;5067276;28;20655;-66
2020/12/10 06:58:13;;;;;;;72.80;29.47;;;1.40;99.90;;;;;;5069141;28;20237;-66
2020/12/10 07:00:46;;;;;;;42.90;17.53;;;1.40;99.90;;;;;;5066132;28;20240;-66
2020/12/10 07:03:27;;;;;;;44.37;20.37;;;1.40;99.90;;;;;;5068604;28;20192;-65
2020/12/10 07:05:53;;;;;;;59.50;24.23;;;1.40;99.90;;;;;;5059299;28;20177;-66
2020/12/10 07:08:20;;;;;;;44.33;18.83;;;1.40;99.90;;;;;;5068838;28;20456;-66
2020/12/10 07:10:51;;;;;;;36.23;17.53;;;1.40;99.90;;;;;;5066975;28;20220;-66
2020/12/10 07:13:29;;;;;;;50.10;23.80;;;1.40;99.90;;;;;;5069015;28;20846;-66
2020/12/10 07:15:55;;;;;;;59.37;27.23;;;1.40;99.90;;;;;;5068674;28;20649;-66
2020/12/10 07:18:20;;;;;;;51.80;22.23;;;1.40;99.90;;;;;;5068196;28;20196;-66
2020/12/10 07:20:46;;;;;;;56.17;23.37;;;1.40;99.90;;;;;;5066514;28;20280;-65
2020/12/10 07:23:12;;;;;;;43.90;21.40;;;1.40;99.90;;;;;;5068516;28;20192;-66
2020/12/10 07:25:37;;;;;;;52.80;22.00;;;1.30;99.90;;;;;;5067661;28;20257;-65
2020/12/10 07:28:03;;;;;;;51.80;22.17;;;1.40;99.90;;;;;;5068606;28;20181;-65
2020/12/10 07:30:31;;;;;;;47.80;21.00;;;1.40;99.90;;;;;;5066609;28;20208;-66
2020/12/10 07:32:59;;;;;;;41.37;18.50;;;1.30;99.90;;;;;;5068142;28;20258;-66
2020/12/10 07:35:29;;;;;;;34.80;15.93;;;1.30;99.90;;;;;;5068002;28;20724;-66
2020/12/10 07:37:55;;;;;;;77.50;29.20;;;1.30;99.90;;;;;;5066992;28;20653;-66
2020/12/10 07:40:21;;;;;;;55.57;23.20;;;1.30;99.90;;;;;;5070567;28;20246;-65
2020/12/10 07:42:47;;;;;;;44.80;21.17;;;1.40;99.90;;;;;;5071365;28;20179;-66
2020/12/10 07:45:14;;;;;;;58.27;25.87;;;1.40;99.90;;;;;;5070613;28;20169;-65
2020/12/10 07:47:40;;;;;;;64.77;28.40;;;1.40;99.90;;;;;;5072265;28;20208;-65
2020/12/10 07:50:07;;;;;;;33.93;15.67;;;1.40;99.90;;;;;;5072237;28;20251;-65
2020/12/10 07:52:41;;;;;;;38.30;17.17;;;1.30;99.90;;;;;;5076644;28;20181;-68
2020/12/10 07:55:15;;;;;;;45.20;20.00;;;1.30;99.90;;;;;;5072578;28;20590;-68
2020/12/10 07:57:49;;;;;;;61.13;27.73;;;1.30;99.90;;;;;;5069896;28;20209;-62
2020/12/10 08:00:17;;;;;;;34.40;15.07;;;1.30;99.90;;;;;;5070744;28;20259;-60
2020/12/10 08:03:05;;;;;;;39.50;17.67;;;1.20;99.90;;;;;;5067164;28;20192;-62
2020/12/10 08:05:31;;;;;;;42.63;19.80;;;1.20;99.90;;;;;;5071763;28;20165;-62
2020/12/10 08:07:57;;;;;;;56.27;24.83;;;1.30;99.90;;;;;;5070791;28;20173;-62
2020/12/10 08:10:32;;;;;;;39.47;17.20;;;1.30;99.90;;;;;;5069372;28;20622;-61
2020/12/10 08:13:18;;;;;;;31.03;14.53;;;1.30;99.90;;;;;;5069632;28;20180;-62
2020/12/10 08:15:46;;;;;;;71.97;29.10;;;1.30;99.90;;;;;;5070380;28;20181;-63
2020/12/10 08:18:14;;;;;;;63.03;25.40;;;1.30;99.90;;;;;;5067261;28;20661;-62
2020/12/10 08:20:47;;;;;;;61.20;25.77;;;1.30;99.90;;;;;;5068212;28;20185;-63
2020/12/10 08:23:14;;;;;;;68.17;30.40;;;1.20;99.90;;;;;;5071533;28;20541;-63
2020/12/10 08:25:40;;;;;;;68.27;29.77;;;1.20;99.90;;;;;;5070931;28;20165;-63
2020/12/10 08:28:08;;;;;;;60.90;26.33;;;1.30;99.90;;;;;;5069958;28;20176;-63
2020/12/10 08:30:35;;;;;;;56.67;24.43;;;1.20;99.90;;;;;;5070811;28;20196;-63
2020/12/10 08:33:02;;;;;;;54.13;24.33;;;1.20;99.90;;;;;;5069597;28;20189;-63
2020/12/10 08:35:28;;;;;;;67.73;29.27;;;1.20;99.90;;;;;;5071334;28;20181;-63
2020/12/10 08:41:35;;;;;;;72.40;28.40;;;1.20;99.90;;;;;;5071529;28;20201;-59
2020/12/10 08:44:04;;;;;;;67.00;26.93;;;1.20;99.90;;;;;;5066527;28;20181;-60
2020/12/10 08:46:31;;;;;;;76.80;30.03;;;1.20;99.90;;;;;;5069841;28;20184;-59
2020/12/10 08:49:13;;;;;;;55.70;23.17;;;1.10;99.90;;;;;;5069959;28;20173;-59
2020/12/10 08:51:40;;;;;;;70.07;25.33;;;1.20;99.90;;;;;;5068365;28;20592;-60
2020/12/10 08:54:05;;;;;;;72.43;28.00;;;1.10;99.90;;;;;;5071836;28;20465;-60
2020/12/10 08:56:36;;;;;;;59.63;26.77;;;1.10;99.90;;;;;;5070683;28;20513;-61
2020/12/10 08:59:02;;;;;;;69.63;28.73;;;1.00;99.90;;;;;;5071393;28;20559;-59
2020/12/10 09:01:27;;;;;;;80.50;31.23;;;1.00;99.90;;;;;;5071310;28;20196;-58
2020/12/10 09:03:53;;;;;;;78.00;29.93;;;1.00;99.90;;;;;;5069963;28;20192;-61
2020/12/10 09:06:18;;;;;;;54.20;23.93;;;1.10;99.90;;;;;;5070233;28;20192;-58
2020/12/10 09:08:44;;;;;;;61.90;24.50;;;1.10;99.90;;;;;;5069637;28;20185;-58
2020/12/10 09:11:09;;;;;;;64.93;26.07;;;1.00;99.90;;;;;;5091177;22;20263;-63
2020/12/10 09:13:35;;;;;;;60.93;25.33;;;1.10;99.90;;;;;;5071954;28;20180;-63
2020/12/10 09:16:00;;;;;;;47.40;17.97;;;1.00;99.90;;;;;;5067625;28;20646;-61
2020/12/10 09:18:26;;;;;;;59.63;24.77;;;1.00;99.90;;;;;;5067073;28;20201;-62
2020/12/10 09:20:53;;;;;;;63.97;24.47;;;0.90;99.90;;;;;;5067311;28;20193;-61
2020/12/10 09:23:18;;;;;;;68.67;26.47;;;0.90;99.90;;;;;;5069225;28;20203;-62
2020/12/10 09:25:44;;;;;;;65.50;26.97;;;0.90;99.90;;;;;;5070363;28;20645;-62
2020/12/10 09:28:10;;;;;;;70.10;25.37;;;0.90;99.90;;;;;;5067547;28;20185;-59
2020/12/10 09:30:39;;;;;;;67.43;27.17;;;0.90;99.90;;;;;;5067477;28;20204;-66
2020/12/10 09:33:04;;;;;;;63.30;26.67;;;1.00;99.90;;;;;;5067815;28;20190;-63
2020/12/10 09:35:31;;;;;;;68.70;27.30;;;0.90;99.90;;;;;;5070277;28;20192;-63
2020/12/10 09:37:56;;;;;;;69.07;26.13;;;0.90;99.90;;;;;;5056699;28;20268;-63
2020/12/10 09:40:22;;;;;;;42.50;18.97;;;1.00;99.90;;;;;;5067449;28;20257;-62
2020/12/10 09:42:48;;;;;;;41.40;17.07;;;0.90;99.90;;;;;;5068450;28;20254;-62
2020/12/10 09:45:15;;;;;;;62.63;25.67;;;0.90;99.90;;;;;;5067674;28;20183;-62
2020/12/10 09:47:42;;;;;;;59.30;24.93;;;0.90;99.90;;;;;;5070012;28;20256;-64
2020/12/10 09:50:17;;;;;;;65.83;28.63;;;0.90;99.90;;;;;;5069302;28;20193;-63
2020/12/10 09:52:49;;;;;;;67.67;26.73;;;0.90;99.90;;;;;;5067797;28;20181;-64
2020/12/10 09:57:52;;;;;;;23.03;11.90;;;1.00;99.90;;;;;;5067691;28;20201;-66
2020/12/10 10:00:17;;;;;;;60.03;23.60;;;1.00;99.90;;;;;;5066538;28;20205;-66
2020/12/10 10:02:43;;;;;;;58.97;24.53;;;1.00;99.90;;;;;;5066133;28;20177;-66
2020/12/10 10:05:08;;;;;;;47.73;19.27;;;1.00;99.90;;;;;;5069305;28;20311;-68
2020/12/10 10:07:36;;;;;;;48.80;19.77;;;0.90;99.90;;;;;;5068077;28;20173;-67
2020/12/10 10:10:02;;;;;;;64.67;25.50;;;0.90;99.90;;;;;;5069063;28;20197;-67
2020/12/10 10:12:28;;;;;;;65.63;27.57;;;0.90;99.90;;;;;;5067097;28;20193;-68
2020/12/10 10:14:54;;;;;;;54.00;21.63;;;0.90;99.90;;;;;;5068694;28;20264;-68
2020/12/10 10:17:21;;;;;;;48.30;18.47;;;0.90;99.90;;;;;;5065586;28;20205;-67
2020/12/10 10:19:47;;;;;;;55.60;23.13;;;0.80;99.90;;;;;;5068989;28;20165;-68
2020/12/10 10:22:12;;;;;;;68.60;29.00;;;0.80;99.90;;;;;;5068542;28;20173;-67
2020/12/10 10:24:38;;;;;;;66.10;27.23;;;0.80;99.90;;;;;;5068946;28;20192;-68
2020/12/10 10:27:04;;;;;;;66.70;26.77;;;1.00;99.90;;;;;;5067130;28;20204;-68
2020/12/10 10:29:30;;;;;;;64.63;25.37;;;1.00;99.90;;;;;;5067423;28;20263;-68
2020/12/10 10:31:56;;;;;;;60.20;26.17;;;1.00;99.90;;;;;;5072248;28;20763;-67
2020/12/10 10:34:21;;;;;;;61.00;25.17;;;1.00;99.90;;;;;;5080047;28;20626;-68
2020/12/10 10:36:49;;;;;;;65.60;27.03;;;1.00;99.90;;;;;;5075225;28;20207;-68
2020/12/10 10:39:15;;;;;;;59.30;25.60;;;1.00;99.90;;;;;;5061162;28;20178;-68
2020/12/10 10:41:42;;;;;;;56.50;23.17;;;1.00;99.90;;;;;;5087672;28;20687;-68
2020/12/10 10:44:07;;;;;;;57.33;23.47;;;1.00;99.90;;;;;;5070883;28;20188;-67
2020/12/10 10:46:33;;;;;;;64.37;26.37;;;1.10;99.90;;;;;;5078727;28;20173;-67
2020/12/10 10:48:58;;;;;;;61.93;25.13;;;1.10;99.90;;;;;;5085434;28;20546;-68
2020/12/10 10:51:25;;;;;;;63.27;26.27;;;1.10;99.90;;;;;;5074196;28;20189;-67
2020/12/10 10:53:50;;;;;;;60.80;25.23;;;1.10;99.90;;;;;;5076393;28;20173;-67
2020/12/10 10:56:20;;;;;;;63.97;25.60;;;1.10;99.90;;;;;;5079635;28;20169;-68
2020/12/10 10:58:45;;;;;;;63.67;25.37;;;1.10;99.90;;;;;;5074849;28;20752;-66
2020/12/10 11:01:11;;;;;;;65.90;29.23;;;1.10;99.90;;;;;;5072160;28;20235;-66
2020/12/10 11:03:36;;;;;;;64.47;25.87;;;1.10;99.90;;;;;;5070115;28;20566;-68
2020/12/10 11:06:02;;;;;;;64.37;27.13;;;1.20;99.90;;;;;;5090030;28;20160;-67
2020/12/10 11:08:27;;;;;;;56.97;24.17;;;1.10;99.90;;;;;;5084219;28;20713;-66
2020/12/10 11:10:53;;;;;;;67.70;29.07;;;1.20;99.90;;;;;;5075492;28;20655;-63
2020/12/10 11:13:18;;;;;;;21.23;10.83;;;1.20;99.90;;;;;;5083647;28;20188;-63
2020/12/10 11:15:43;;;;;;;71.50;29.27;;;1.20;99.90;;;;;;5089630;28;20173;-63
2020/12/10 11:18:09;;;;;;;69.00;28.03;;;1.10;99.90;;;;;;5061996;28;20196;-63
2020/12/10 11:21:27;;;;;;;62.50;26.20;;;1.20;99.90;;;;;;5083512;27;20968;-63
2020/12/10 11:23:53;;;;;;;60.47;26.10;;;1.20;99.90;;;;;;5072302;28;20180;-64
2020/12/10 11:26:19;;;;;;;55.00;22.50;;;1.20;99.90;;;;;;5076685;28;20176;-63
2020/12/10 11:28:44;;;;;;;60.83;25.77;;;1.20;99.90;;;;;;5075890;28;20200;-64
2020/12/10 11:31:10;;;;;;;50.20;20.40;;;1.20;99.90;;;;;;5071719;28;20287;-62
2020/12/10 11:33:36;;;;;;;58.33;25.07;;;1.10;99.90;;;;;;5088599;22;20220;-69
2020/12/10 11:36:04;;;;;;;53.80;23.20;;;1.10;99.90;;;;;;5066969;28;20189;-67
2020/12/10 11:38:29;;;;;;;56.80;23.37;;;1.10;99.90;;;;;;5067355;28;20168;-67
2020/12/10 11:40:55;;;;;;;67.37;22.93;;;1.10;99.90;;;;;;5065947;28;20204;-68
2020/12/10 11:43:20;;;;;;;69.67;27.00;;;1.10;99.90;;;;;;5066045;28;20599;-68
2020/12/10 11:45:46;;;;;;;58.17;23.60;;;1.20;99.90;;;;;;5067462;28;20634;-68
2020/12/10 11:48:12;;;;;;;66.93;30.17;;;1.20;99.90;;;;;;5066626;28;20665;-69
2020/12/10 11:50:38;;;;;;;55.97;21.57;;;1.20;99.90;;;;;;5064775;28;20173;-69
2020/12/10 11:53:05;;;;;;;59.63;25.67;;;1.10;99.90;;;;;;5066152;28;20200;-68
2020/12/10 11:55:30;;;;;;;65.57;27.33;;;1.00;99.90;;;;;;5065142;28;20205;-69
2020/12/10 11:57:56;;;;;;;51.47;20.43;;;1.10;99.90;;;;;;5065251;28;20208;-69
2020/12/10 12:00:22;;;;;;;62.77;27.23;;;1.10;99.90;;;;;;5063558;28;20197;-67
2020/12/10 12:02:50;;;;;;;38.63;17.23;;;1.10;99.90;;;;;;5065222;28;20196;-67
2020/12/10 12:05:16;;;;;;;64.93;24.73;;;1.10;99.90;;;;;;5064833;28;20177;-68
2020/12/10 12:07:44;;;;;;;65.20;26.53;;;1.00;99.90;;;;;;5063867;28;20169;-68
2020/12/10 12:10:10;;;;;;;45.20;18.70;;;1.00;99.90;;;;;;5064042;28;20185;-68
2020/12/10 12:12:35;;;;;;;54.13;22.63;;;1.00;99.90;;;;;;5064466;28;20201;-69
2020/12/10 12:15:05;;;;;;;57.03;24.13;;;0.90;99.90;;;;;;5064012;28;20337;-69
2020/12/10 12:17:33;;;;;;;63.67;26.60;;;1.00;99.90;;;;;;5061951;28;20235;-68
2020/12/10 12:19:59;;;;;;;40.37;17.97;;;1.10;99.90;;;;;;5063794;28;20262;-67
2020/12/10 12:22:24;;;;;;;65.13;29.03;;;1.00;99.90;;;;;;5064022;28;20283;-68
2020/12/10 12:24:50;;;;;;;57.50;22.43;;;1.20;99.90;;;;;;5064320;28;20548;-68
2020/12/10 12:27:15;;;;;;;62.53;26.30;;;1.20;99.90;;;;;;5064103;28;20177;-68
2020/12/10 12:29:41;;;;;;;60.63;24.03;;;1.30;99.90;;;;;;5064533;28;20169;-68
2020/12/10 12:32:06;;;;;;;63.50;23.87;;;1.30;99.90;;;;;;5054819;28;20169;-68
2020/12/10 12:34:33;;;;;;;67.47;27.53;;;1.40;99.90;;;;;;5050312;28;20236;-68
2020/12/10 12:36:59;;;;;;;39.33;18.13;;;1.40;99.90;;;;;;5050218;28;20190;-69
2020/12/10 12:39:24;;;;;;;57.47;22.80;;;1.30;99.90;;;;;;5051408;28;20266;-68
2020/12/10 12:41:50;;;;;;;50.57;21.93;;;1.10;99.90;;;;;;5051402;28;20166;-67